Current | Forecast
Updated: 6:20 AM JST on January 23, 2018
Observed at Takamatsu Airport, Japan
Temperature 43°F
Windchill 35°F
Humidity 87%
Dew Point 39°F
Wind WSW at 17 mph
Pressure 29.83 in (Falling)
Conditions Mostly Cloudy
Visibility 6.2 miles
UV 0 out of 16
Clouds (FEW) : 1500 ft
Scattered Clouds (SCT) : 3500 ft
Mostly Cloudy (BKN) : 5000 ft
Yesterday's Maximum 41°F
Yesterday's Minimum 32°F approx.
Yesterday's Heating Degree Days 29 approx.
Sunrise7:07 AM JST
Sunset5:26 PM JST
Moon Rise10:40 AM JST
Moon Set11:08 PM JST
Moon PhaseMoon Phase
Waxing Crescent
Raw METARSPECI RJOT 222120Z 25015KT 9999 FEW015 SCT035 BKN050 06/04 Q1010 RMK 1CU015 4CU035 6SC050 A2984


Monday
. High: 69° F.
Tuesday
. High: 69° F.
Wednesday
. High: 66° F.
Thursday
. High: 69° F.
Friday
. High: 69° F.
Saturday
. High: 69° F.
Sunday
. High: 71° F.
Monday
. High: 73° F.

Units: English | Metric

Find the Weather for any City, State or Zipcode, or Country:

U.S. State List | Severe Weather | Tropical Storms | Ski Conditions
United States | Canada | Central America | South America | Asia | Europe | Australia | Africa | Islands

Weather Underground

© Copyright 2018
The Weather Company, LLC